Terminal Aerodrome Forecast
Issued by NWS Bismarck, ND

Home | Current Version | Previous Version | Graphics & Text | Print | Product List | Glossary On
Versions: 1 2 3 4 5 6 7 8 9 10 11 12 13
668
FTUS43 KBIS 201120
TAFBIS
TAF
KBIS 201120Z 2012/2112 28006KT P6SM SCT090 OVC120
     FM201400 27005KT P6SM BKN140
     FM201900 28006KT P6SM SCT200
     FM210300 31005KT P6SM BKN180=

USA.gov is the U.S. government's official web portal to all federal, state and local government web resources and services.